createdAt,value
2018-09-14T00:01:43.100Z,88.95
2018-09-14T00:04:11.680Z,89.15
2018-09-14T00:06:40.204Z,89.07
2018-09-14T00:09:11.736Z,89.56
2018-09-14T00:11:41.109Z,88.85
2018-09-14T00:14:09.956Z,88.80
2018-09-14T00:16:39.176Z,89.58
2018-09-14T00:19:07.734Z,90.48
2018-09-14T00:21:36.189Z,90.32
2018-09-14T00:24:12.110Z,90.48
2018-09-14T00:26:40.670Z,90.60
2018-09-14T00:29:09.445Z,90.49
2018-09-14T00:31:37.791Z,91.69
2018-09-14T00:34:06.443Z,92.79
2018-09-14T00:36:34.939Z,92.74
2018-09-14T00:39:03.849Z,93.20
2018-09-14T00:41:32.675Z,92.92
2018-09-14T00:44:01.204Z,93.00
2018-09-14T00:46:29.782Z,92.65
2018-09-14T00:48:58.069Z,92.81
2018-09-14T00:51:26.688Z,91.82
2018-09-14T00:53:56.669Z,92.33
2018-09-14T00:56:25.222Z,90.61
2018-09-14T00:58:53.884Z,90.69
2018-09-14T01:01:22.312Z,90.17
2018-09-14T01:03:50.977Z,89.75
2018-09-14T01:06:19.500Z,88.68
2018-09-14T01:08:48.039Z,88.54
2018-09-14T01:11:17.686Z,87.62
2018-09-14T01:13:46.197Z,87.41
2018-09-14T01:16:14.985Z,88.44
2018-09-14T01:18:43.980Z,88.74
2018-09-14T01:21:12.562Z,88.09
2018-09-14T01:23:40.824Z,89.12
2018-09-14T01:26:09.765Z,89.26
2018-09-14T01:28:37.995Z,89.26
2018-09-14T01:31:06.892Z,89.29
2018-09-14T01:33:35.400Z,89.55
2018-09-14T01:36:11.012Z,89.99
2018-09-14T01:38:39.864Z,90.25
2018-09-14T01:41:09.140Z,89.89
2018-09-14T01:43:37.582Z,89.48
2018-09-14T01:46:06.253Z,89.86
2018-09-14T01:48:34.502Z,89.38
2018-09-14T01:51:03.038Z,89.77
2018-09-14T01:53:31.926Z,90.46
2018-09-14T01:56:00.675Z,88.69
2018-09-14T01:58:29.549Z,87.46
2018-09-14T02:00:58.354Z,86.89
2018-09-14T02:03:27.112Z,86.77
2018-09-14T02:05:55.334Z,86.83
2018-09-14T02:08:24.760Z,87.22
2018-09-14T02:10:53.179Z,86.73
2018-09-14T02:13:21.784Z,87.08
2018-09-14T02:15:50.747Z,86.66
2018-09-14T02:18:19.360Z,86.41
2018-09-14T02:20:47.603Z,86.77
2018-09-14T02:23:16.595Z,87.67
2018-09-14T02:25:45.149Z,87.98
2018-09-14T02:28:13.397Z,87.83
2018-09-14T02:30:42.587Z,87.07
2018-09-14T02:33:11.104Z,86.74
2018-09-14T02:35:39.949Z,85.58
2018-09-14T02:38:08.476Z,86.75
2018-09-14T02:40:36.825Z,86.89
2018-09-14T02:43:05.379Z,86.83
2018-09-14T02:45:34.332Z,86.73
2018-09-14T02:48:03.302Z,86.80
2018-09-14T02:50:32.887Z,87.12
2018-09-14T02:53:02.044Z,86.94
2018-09-14T02:55:30.731Z,86.83
2018-09-14T02:57:59.809Z,87.68
2018-09-14T03:00:28.055Z,88.13
2018-09-14T03:02:57.103Z,87.06
2018-09-14T03:05:26.365Z,86.15
2018-09-14T03:07:54.644Z,87.21
2018-09-14T03:10:23.565Z,86.89
2018-09-14T03:12:52.488Z,87.10
2018-09-14T03:15:20.826Z,85.81
2018-09-14T03:17:49.946Z,86.85
2018-09-14T03:20:18.207Z,86.81
2018-09-14T03:22:47.080Z,86.30
2018-09-14T03:25:15.347Z,86.63
2018-09-14T03:27:44.089Z,86.82
2018-09-14T03:30:12.929Z,87.02
2018-09-14T03:32:41.209Z,87.48
2018-09-14T03:35:10.100Z,87.62
2018-09-14T03:37:38.668Z,87.71
2018-09-14T03:40:07.582Z,87.13
2018-09-14T03:42:36.963Z,86.69
2018-09-14T03:45:06.334Z,86.93
2018-09-14T03:47:34.922Z,86.90
2018-09-14T03:50:04.341Z,86.84
2018-09-14T03:52:32.883Z,86.28
2018-09-14T03:55:02.076Z,85.69
2018-09-14T03:57:31.852Z,86.25
2018-09-14T04:00:00.768Z,87.04
2018-09-14T04:02:29.265Z,86.68
2018-09-14T04:04:57.531Z,86.57
2018-09-14T04:07:26.096Z,87.06
2018-09-14T04:09:54.640Z,86.89
2018-09-14T04:12:23.517Z,87.48
2018-09-14T04:14:52.031Z,87.38
2018-09-14T04:17:20.298Z,87.41
2018-09-14T04:19:48.788Z,87.04
2018-09-14T04:22:17.864Z,86.23
2018-09-14T04:24:46.109Z,86.15
2018-09-14T04:27:15.568Z,86.52
2018-09-14T04:29:44.157Z,86.20
2018-09-14T04:32:12.412Z,86.60
2018-09-14T04:34:40.748Z,86.33
2018-09-14T04:37:09.360Z,85.58
2018-09-14T04:39:38.239Z,85.86
2018-09-14T04:42:07.514Z,85.83
2018-09-14T04:44:35.752Z,85.43
2018-09-14T04:47:05.408Z,85.06
2018-09-14T04:49:33.953Z,85.76
2018-09-14T04:52:05.083Z,85.88
2018-09-14T04:54:33.320Z,85.89
2018-09-14T04:57:02.028Z,85.86
2018-09-14T04:59:30.384Z,86.19
2018-09-14T05:01:58.577Z,85.73
2018-09-14T05:04:27.109Z,84.94
2018-09-14T05:06:55.383Z,85.32
2018-09-14T05:09:24.826Z,85.45
2018-09-14T05:11:53.354Z,86.36
2018-09-14T05:14:21.684Z,86.31
2018-09-14T05:16:49.940Z,85.83
2018-09-14T05:19:18.498Z,85.38
2018-09-14T05:21:46.881Z,85.59
2018-09-14T05:24:15.130Z,85.33
2018-09-14T05:26:44.304Z,85.15
2018-09-14T05:29:15.377Z,85.24
2018-09-14T05:31:43.918Z,84.38
2018-09-14T05:34:12.465Z,83.96
2018-09-14T05:36:41.276Z,84.55
2018-09-14T05:39:10.499Z,85.04
2018-09-14T05:41:39.744Z,84.70
2018-09-14T05:44:08.839Z,84.11
2018-09-14T05:46:37.576Z,85.12
2018-09-14T05:49:06.780Z,84.67
2018-09-14T05:51:35.432Z,85.23
2018-09-14T05:54:04.810Z,85.10
2018-09-14T05:56:34.028Z,84.74
2018-09-14T05:59:02.397Z,84.54
2018-09-14T06:01:31.951Z,84.57
2018-09-14T06:04:00.329Z,84.39
2018-09-14T06:06:35.381Z,84.51
2018-09-14T06:09:07.360Z,84.10
2018-09-14T06:11:36.068Z,83.76
2018-09-14T06:14:05.946Z,83.29
2018-09-14T06:16:35.757Z,82.93
2018-09-14T06:19:04.917Z,82.98
2018-09-14T06:21:33.915Z,82.50
2018-09-14T06:24:03.209Z,82.08
2018-09-14T06:26:32.680Z,81.92
2018-09-14T06:29:01.401Z,80.74
2018-09-14T06:31:30.092Z,80.55
2018-09-14T06:33:59.163Z,79.71
2018-09-14T06:36:28.584Z,80.74
2018-09-14T06:38:57.180Z,79.81
2018-09-14T06:41:25.808Z,78.22
2018-09-14T06:43:54.810Z,77.74
2018-09-14T06:46:23.609Z,77.20
2018-09-14T06:48:51.912Z,75.32
2018-09-14T06:51:21.213Z,76.02
2018-09-14T06:53:49.485Z,74.35
2018-09-14T06:56:18.194Z,72.71
2018-09-14T06:58:46.734Z,72.23
2018-09-14T07:01:15.392Z,70.27
2018-09-14T07:03:44.003Z,71.04
2018-09-14T07:06:12.303Z,72.61
2018-09-14T07:08:40.993Z,72.40
2018-09-14T07:11:09.510Z,73.45
2018-09-14T07:13:37.708Z,74.40
2018-09-14T07:16:05.962Z,76.93
2018-09-14T07:18:34.339Z,77.01
2018-09-14T07:21:03.028Z,77.81
2018-09-14T07:23:31.527Z,77.10
2018-09-14T07:26:00.162Z,77.62
2018-09-14T07:28:28.503Z,75.65
2018-09-14T07:30:56.946Z,75.19
2018-09-14T07:33:25.208Z,75.96
2018-09-14T07:35:53.928Z,74.86
2018-09-14T07:38:22.265Z,74.81
2018-09-14T07:40:50.789Z,74.71
2018-09-14T07:43:19.024Z,75.34
2018-09-14T07:45:47.967Z,74.38
2018-09-14T07:48:16.753Z,74.19
2018-09-14T07:50:45.019Z,73.69
2018-09-14T07:53:13.350Z,72.65
2018-09-14T07:55:42.342Z,71.52
2018-09-14T07:58:10.876Z,70.55
2018-09-14T08:00:39.552Z,69.66
2018-09-14T08:03:08.376Z,69.63
2018-09-14T08:05:36.649Z,67.89
2018-09-14T08:08:04.969Z,69.09
2018-09-14T08:10:33.344Z,69.85
2018-09-14T08:13:01.932Z,70.19
2018-09-14T08:15:30.633Z,71.17
2018-09-14T08:17:58.928Z,72.69
2018-09-14T08:20:27.752Z,72.35
2018-09-14T08:25:37.058Z,73.66
2018-09-14T08:28:05.560Z,74.73
2018-09-14T08:30:33.999Z,74.06
2018-09-14T08:33:02.723Z,72.54
2018-09-14T08:35:32.167Z,72.82
2018-09-14T08:38:00.767Z,73.74
2018-09-14T08:40:29.414Z,74.87
2018-09-14T08:42:58.696Z,74.45
2018-09-14T08:45:27.135Z,74.33
2018-09-14T08:47:55.382Z,74.08
2018-09-14T08:50:24.707Z,73.10
2018-09-14T08:52:53.785Z,72.75
2018-09-14T08:55:22.324Z,71.48
2018-09-14T08:57:51.583Z,72.83
2018-09-14T09:00:25.116Z,70.87
2018-09-14T09:02:54.615Z,68.78
2018-09-14T09:05:24.134Z,68.05
2018-09-14T09:07:53.041Z,66.37
2018-09-14T09:10:21.829Z,66.93
2018-09-14T09:12:50.780Z,66.71
2018-09-14T09:15:19.426Z,66.44
2018-09-14T09:17:48.339Z,64.39
2018-09-14T09:20:17.191Z,65.04
2018-09-14T09:22:45.768Z,62.20
2018-09-14T09:25:14.277Z,59.63
2018-09-14T09:27:42.532Z,58.37
2018-09-14T09:30:10.762Z,54.72
2018-09-14T09:32:39.453Z,52.59
2018-09-14T09:35:09.229Z,52.60
2018-09-14T09:37:37.567Z,53.80
2018-09-14T09:40:06.717Z,56.04
2018-09-14T09:42:35.236Z,53.87
2018-09-14T09:45:04.127Z,52.26
2018-09-14T09:47:32.901Z,50.07
2018-09-14T09:50:01.759Z,52.69
2018-09-14T09:52:30.282Z,52.69
2018-09-14T09:54:58.851Z,52.70
2018-09-14T09:57:27.400Z,52.27
2018-09-14T09:59:55.685Z,52.84
2018-09-14T10:02:28.155Z,54.39
2018-09-14T10:05:01.870Z,54.00
2018-09-14T10:07:30.700Z,55.61
2018-09-14T10:09:59.176Z,56.33
2018-09-14T10:12:27.970Z,56.05
2018-09-14T10:14:56.300Z,55.76
2018-09-14T10:17:25.162Z,58.03
2018-09-14T10:19:53.411Z,58.87
2018-09-14T10:22:23.662Z,58.96
2018-09-14T10:24:53.859Z,60.26
2018-09-14T10:27:23.692Z,63.54
2018-09-14T10:29:53.579Z,65.10
2018-09-14T10:32:23.641Z,67.38
2018-09-14T10:34:53.552Z,68.61
2018-09-14T10:37:23.286Z,67.05
2018-09-14T10:39:53.757Z,67.42
2018-09-14T10:42:26.912Z,67.54
2018-09-14T10:44:57.705Z,67.74
2018-09-14T10:47:27.656Z,65.86
2018-09-14T10:49:55.980Z,65.40
2018-09-14T10:52:25.857Z,64.98
2018-09-14T10:54:54.689Z,64.58
2018-09-14T10:57:23.441Z,63.55
2018-09-14T10:59:52.262Z,63.68
2018-09-14T11:02:20.452Z,62.59
2018-09-14T11:04:49.897Z,61.46
2018-09-14T11:07:18.534Z,60.02
2018-09-14T11:09:47.239Z,59.10
2018-09-14T11:12:15.548Z,58.80
2018-09-14T11:14:45.335Z,59.52
2018-09-14T11:17:14.797Z,58.52
2018-09-14T11:19:45.014Z,58.61
2018-09-14T11:22:16.523Z,58.90
2018-09-14T11:24:47.280Z,58.20
2018-09-14T11:27:18.835Z,57.49
2018-09-14T11:29:47.077Z,56.98
2018-09-14T11:32:17.573Z,57.23
2018-09-14T11:34:46.211Z,56.15
2018-09-14T11:37:14.648Z,56.48
2018-09-14T11:39:42.927Z,56.02
2018-09-14T11:42:11.604Z,56.02
2018-09-14T11:44:40.399Z,56.34
2018-09-14T11:47:09.138Z,54.53
2018-09-14T11:49:37.389Z,54.15
2018-09-14T11:52:06.028Z,54.28
2018-09-14T11:54:34.309Z,53.58
2018-09-14T11:57:02.931Z,55.83
2018-09-14T11:59:31.243Z,55.28
2018-09-14T12:01:59.844Z,55.27
2018-09-14T12:04:28.556Z,55.09
2018-09-14T12:06:56.779Z,55.21
2018-09-14T12:09:25.411Z,55.10
2018-09-14T12:11:53.648Z,53.51
2018-09-14T12:14:21.926Z,53.92
2018-09-14T12:16:51.038Z,54.22
2018-09-14T12:19:19.370Z,53.69
2018-09-14T12:21:47.661Z,52.78
2018-09-14T12:24:16.236Z,52.08
2018-09-14T12:26:44.717Z,51.59
2018-09-14T12:29:13.313Z,53.10
2018-09-14T12:31:41.559Z,51.57
2018-09-14T12:34:09.856Z,50.84
2018-09-14T12:36:38.333Z,50.68
2018-09-14T12:39:09.026Z,51.12
2018-09-14T12:41:37.449Z,50.99
2018-09-14T12:44:06.136Z,49.45
2018-09-14T12:46:34.412Z,48.26
2018-09-14T12:49:02.951Z,47.12
2018-09-14T12:51:32.104Z,49.53
2018-09-14T12:54:01.036Z,48.80
2018-09-14T12:56:29.820Z,48.75
2018-09-14T12:58:58.060Z,48.36
2018-09-14T13:01:26.599Z,46.84
2018-09-14T13:03:55.253Z,45.15
2018-09-14T13:06:23.560Z,44.51
2018-09-14T13:08:52.320Z,45.41
2018-09-14T13:11:21.078Z,43.76
2018-09-14T13:13:50.451Z,38.65
2018-09-14T13:16:18.900Z,36.67
2018-09-14T13:18:47.790Z,37.02
2018-09-14T13:21:16.097Z,35.98
2018-09-14T13:23:44.853Z,37.01
2018-09-14T13:26:13.148Z,34.42
2018-09-14T13:28:42.621Z,31.15
2018-09-14T13:31:10.916Z,30.63
2018-09-14T13:33:39.433Z,30.02
2018-09-14T13:36:08.100Z,27.84
2018-09-14T13:38:36.364Z,28.13
2018-09-14T13:41:04.597Z,27.55
2018-09-14T13:43:32.834Z,29.37
2018-09-14T13:46:01.049Z,30.21
2018-09-14T13:48:29.956Z,27.22
2018-09-14T13:50:58.480Z,29.28
2018-09-14T13:53:26.768Z,29.99
2018-09-14T13:55:55.247Z,27.00
2018-09-14T13:58:23.503Z,31.44
2018-09-14T14:00:51.905Z,34.60
2018-09-14T14:03:22.180Z,35.17
2018-09-14T14:05:50.694Z,37.10
2018-09-14T14:08:19.325Z,40.41
2018-09-14T14:10:47.927Z,39.32
2018-09-14T14:13:16.271Z,39.38
2018-09-14T14:15:44.853Z,39.50
2018-09-14T14:18:13.165Z,41.39
2018-09-14T14:20:41.781Z,41.29
2018-09-14T14:23:10.037Z,41.28
2018-09-14T14:25:38.584Z,43.33
2018-09-14T14:28:07.297Z,45.13
2018-09-14T14:30:36.722Z,46.96
2018-09-14T14:33:05.632Z,47.24
2018-09-14T14:35:34.296Z,46.94
2018-09-14T14:38:02.512Z,45.85
2018-09-14T14:40:30.892Z,46.81
2018-09-14T14:43:00.869Z,44.10
2018-09-14T14:45:30.003Z,42.25
2018-09-14T14:47:58.744Z,42.08
2018-09-14T14:50:27.229Z,41.22
2018-09-14T14:52:55.710Z,41.98
2018-09-14T14:55:24.201Z,43.06
2018-09-14T14:57:52.769Z,44.66
2018-09-14T15:00:21.889Z,48.20
2018-09-14T15:02:50.253Z,49.49
2018-09-14T15:05:19.093Z,48.25
2018-09-14T15:07:47.220Z,45.84
2018-09-14T15:10:16.428Z,42.29
2018-09-14T15:12:45.335Z,38.56
2018-09-14T15:15:13.610Z,36.86
2018-09-14T15:17:43.999Z,36.63
2018-09-14T15:20:12.362Z,36.53
2018-09-14T15:22:40.888Z,36.90
2018-09-14T15:25:09.400Z,41.12
2018-09-14T15:27:38.271Z,44.14
2018-09-14T15:30:06.827Z,46.02
2018-09-14T15:32:35.101Z,48.72
2018-09-14T15:35:03.436Z,50.84
2018-09-14T15:37:32.085Z,51.20
2018-09-14T15:40:00.389Z,49.68
2018-09-14T15:42:29.080Z,45.02
2018-09-14T15:44:57.509Z,42.15
2018-09-14T15:47:26.140Z,41.25
2018-09-14T15:49:54.961Z,41.06
2018-09-14T15:52:23.243Z,45.60
2018-09-14T15:54:52.156Z,45.60
2018-09-14T15:57:20.449Z,48.18
2018-09-14T15:59:48.972Z,49.25
2018-09-14T16:02:18.092Z,51.14
2018-09-14T16:04:46.658Z,50.72
2018-09-14T16:07:15.244Z,47.13
2018-09-14T16:09:45.808Z,44.07
2018-09-14T16:12:15.263Z,41.63
2018-09-14T16:14:45.136Z,40.89
2018-09-14T16:17:16.189Z,43.87
2018-09-14T16:19:47.294Z,47.57
2018-09-14T16:22:18.925Z,51.00
2018-09-14T16:24:49.667Z,52.74
2018-09-14T16:27:19.859Z,53.73
2018-09-14T16:29:50.081Z,55.13
2018-09-14T16:32:18.640Z,55.71
2018-09-14T16:34:47.399Z,54.64
2018-09-14T16:37:17.085Z,55.00
2018-09-14T16:39:46.358Z,55.63
2018-09-14T16:42:15.293Z,56.47
2018-09-14T16:44:44.249Z,56.44
2018-09-14T16:47:14.343Z,56.73
2018-09-14T16:49:42.989Z,57.09
2018-09-14T16:52:12.556Z,58.12
2018-09-14T16:54:41.785Z,58.74
2018-09-14T16:57:10.460Z,59.72
2018-09-14T16:59:39.416Z,60.23
2018-09-14T17:02:08.095Z,60.95
2018-09-14T17:04:39.145Z,61.47
2018-09-14T17:07:07.964Z,62.27
2018-09-14T17:09:37.310Z,62.58
2018-09-14T17:12:06.181Z,62.45
2018-09-14T17:14:34.883Z,62.44
2018-09-14T17:17:03.667Z,62.10
2018-09-14T17:19:32.145Z,62.50
2018-09-14T17:22:01.384Z,61.48
2018-09-14T17:24:31.684Z,62.07
2018-09-14T17:27:00.331Z,62.18
2018-09-14T17:29:28.615Z,63.10
2018-09-14T17:31:57.313Z,63.41
2018-09-14T17:34:25.544Z,63.88
2018-09-14T17:36:53.924Z,64.63
2018-09-14T17:39:23.063Z,64.93
2018-09-14T17:41:51.693Z,65.47
2018-09-14T17:44:20.196Z,65.16
2018-09-14T17:46:48.495Z,65.53
2018-09-14T17:49:16.686Z,65.35
2018-09-14T17:51:45.712Z,66.17
2018-09-14T17:54:14.501Z,65.60
2018-09-14T17:56:43.986Z,66.12
2018-09-14T17:59:12.278Z,66.13
2018-09-14T18:01:41.004Z,66.75
2018-09-14T18:04:10.056Z,66.80
2018-09-14T18:06:38.365Z,66.66
2018-09-14T18:09:10.571Z,66.58
2018-09-14T18:11:39.387Z,66.64
2018-09-14T18:14:08.220Z,67.37
2018-09-14T18:16:36.764Z,67.08
2018-09-14T18:19:05.326Z,67.64
2018-09-14T18:21:33.670Z,67.08
2018-09-14T18:24:12.759Z,66.35
2018-09-14T18:26:41.271Z,66.25
2018-09-14T18:29:10.508Z,65.85
2018-09-14T18:36:47.498Z,66.65
2018-09-14T18:39:16.389Z,66.79
2018-09-14T18:41:45.233Z,67.49
2018-09-14T18:44:19.159Z,67.51
2018-09-14T18:46:48.161Z,67.38
2018-09-14T18:49:16.439Z,67.28
2018-09-14T18:51:44.792Z,67.90
2018-09-14T18:54:13.857Z,67.59
2018-09-14T18:56:46.032Z,67.81
2018-09-14T18:59:14.855Z,67.67
2018-09-14T19:01:43.856Z,67.33
2018-09-14T19:04:12.219Z,67.21
2018-09-14T19:06:40.780Z,68.04
2018-09-14T19:09:10.816Z,68.34
2018-09-14T19:11:39.270Z,68.21
2018-09-14T19:14:07.590Z,68.37
2018-09-14T19:16:36.339Z,68.53
2018-09-14T19:19:09.269Z,68.86
2018-09-14T19:21:38.157Z,68.94
2018-09-14T19:24:06.672Z,68.93
2018-09-14T19:26:35.953Z,69.26
2018-09-14T19:29:04.171Z,69.23
2018-09-14T19:31:35.109Z,69.14
2018-09-14T19:34:03.569Z,68.81
2018-09-14T19:36:31.867Z,68.75
2018-09-14T19:39:00.228Z,69.32
2018-09-14T19:41:28.704Z,69.67
2018-09-14T19:43:56.938Z,69.31
2018-09-14T19:46:25.991Z,69.22
2018-09-14T19:48:54.443Z,69.71
2018-09-14T19:51:23.330Z,69.48
2018-09-14T19:53:51.883Z,69.29
2018-09-14T19:56:20.674Z,69.39
2018-09-14T19:58:49.109Z,69.18
2018-09-14T20:01:17.633Z,68.99
2018-09-14T20:03:45.891Z,69.04
2018-09-14T20:06:14.907Z,69.38
2018-09-14T20:08:43.193Z,69.13
2018-09-14T20:11:12.097Z,68.53
2018-09-14T20:13:41.077Z,68.61
2018-09-14T20:16:09.355Z,68.97
2018-09-14T20:18:37.836Z,69.33
2018-09-14T20:21:06.386Z,68.95
2018-09-14T20:23:34.792Z,68.94
2018-09-14T20:26:03.008Z,69.50
2018-09-14T20:28:31.785Z,69.63
2018-09-14T20:31:00.447Z,69.38
2018-09-14T20:33:29.279Z,69.31
2018-09-14T20:35:57.606Z,69.13
2018-09-14T20:38:26.556Z,69.06
2018-09-14T20:40:54.827Z,68.78
2018-09-14T20:43:24.144Z,68.89
2018-09-14T20:45:54.057Z,68.97
2018-09-14T20:48:22.759Z,68.70
2018-09-14T20:50:51.944Z,68.60
2018-09-14T20:53:21.479Z,69.83
2018-09-14T20:55:51.250Z,70.18
2018-09-14T20:58:21.309Z,69.35
2018-09-14T21:00:50.956Z,69.00
2018-09-14T21:03:20.419Z,68.95
2018-09-14T21:05:49.003Z,69.67
2018-09-14T21:08:17.400Z,69.83
2018-09-14T21:10:46.804Z,70.07
2018-09-14T21:13:15.106Z,70.37
2018-09-14T21:15:43.372Z,70.32
2018-09-14T21:18:11.835Z,70.34
2018-09-14T21:20:40.099Z,70.50
2018-09-14T21:23:08.407Z,70.68
2018-09-14T21:25:36.866Z,71.41
2018-09-14T21:28:05.077Z,71.41
2018-09-14T21:30:33.863Z,71.20
2018-09-14T21:33:02.622Z,71.34
2018-09-14T21:35:31.042Z,71.41
2018-09-14T21:37:59.713Z,71.39
2018-09-14T21:40:28.109Z,70.80
2018-09-14T21:42:56.913Z,70.60
2018-09-14T21:45:28.078Z,71.11
2018-09-14T21:47:56.287Z,70.91
2018-09-14T21:50:24.685Z,71.13
2018-09-14T21:52:53.196Z,71.20
2018-09-14T21:55:21.491Z,71.53
2018-09-14T21:57:49.717Z,71.78
2018-09-14T22:00:23.477Z,72.24
2018-09-14T22:02:51.972Z,72.12
2018-09-14T22:05:20.194Z,72.37
2018-09-14T22:07:48.541Z,72.28
2018-09-14T22:10:17.125Z,71.49
2018-09-14T22:12:45.638Z,71.25
2018-09-14T22:15:14.027Z,71.62
2018-09-14T22:17:43.073Z,71.74
2018-09-14T22:20:11.307Z,72.35
2018-09-14T22:22:39.845Z,72.28
2018-09-14T22:25:08.612Z,72.66
2018-09-14T22:27:37.261Z,72.46
2018-09-14T22:30:07.048Z,72.14
2018-09-14T22:32:35.393Z,71.74
2018-09-14T22:35:03.623Z,72.90
2018-09-14T22:37:31.825Z,73.11
2018-09-14T22:40:00.633Z,72.50
2018-09-14T22:42:28.860Z,72.44
2018-09-14T22:44:57.070Z,72.31
2018-09-14T22:47:25.684Z,71.84
2018-09-14T22:49:53.888Z,71.39
2018-09-14T22:52:22.154Z,71.95
2018-09-14T22:54:50.726Z,71.49
2018-09-14T22:57:19.317Z,71.57
2018-09-14T22:59:47.854Z,71.07
2018-09-14T23:02:16.158Z,71.09
2018-09-14T23:04:44.625Z,71.97
2018-09-14T23:07:12.921Z,72.08
2018-09-14T23:09:41.550Z,72.43
2018-09-14T23:12:09.799Z,73.01
2018-09-14T23:14:38.333Z,73.02
2018-09-14T23:17:08.431Z,73.22
2018-09-14T23:19:37.777Z,73.10
2018-09-14T23:22:06.349Z,72.14
2018-09-14T23:24:34.603Z,71.79
2018-09-14T23:27:03.066Z,72.40
2018-09-14T23:29:32.491Z,72.84
2018-09-14T23:32:00.981Z,72.25
2018-09-14T23:34:29.460Z,72.71
2018-09-14T23:36:58.029Z,72.09
2018-09-14T23:39:26.268Z,72.30
2018-09-14T23:41:54.803Z,71.79
2018-09-14T23:44:22.999Z,72.32
2018-09-14T23:46:51.250Z,72.68
2018-09-14T23:49:19.576Z,72.84
2018-09-14T23:51:47.871Z,73.45
2018-09-14T23:54:16.073Z,73.30
2018-09-14T23:56:44.629Z,72.96
2018-09-14T23:59:13.100Z,72.79
